Aviation Digital Data Service (ADDS)

Output produced by METARs form (2308 UTC 15 August 2018)
found at http://www.aviationweather.gov/adds/metars/
 
METAR text: RJNK 152300Z 20014KT 9999 FEW030 SCT080 BKN150 31/15 Q1007
Conditions at: RJNK (KOMATSU (CIV/JAS, JP) observed 2300 UTC 15 August 2018
Temperature: 31.0°C (88°F)
Dewpoint: 15.0°C (59°F) [RH = 38%]
Pressure (altimeter): 29.73 inches Hg (1007.0 mb)
Winds: from the SSW (200 degrees) at 16 MPH (14 knots; 7.3 m/s)
Visibility: 6 or more miles (10+ km)
Ceiling: 15000 feet AGL
Clouds: few clouds at 3000 feet AGL
scattered clouds at 8000 feet AGL
broken clouds at 15000 feet AGL
Weather: no significant weather observed at this time